Time;durP1;ratioP1;P1;durP2;ratioP2;P2;SDS_P1;SDS_P2;PMS_P1;PMS_P2;Temp;Humidity;BMP_temperature;BMP_pressure;BME280_temperature;BME280_humidity;BME280_pressure;Samples;Min_cycle;Max_cycle;Signal;HPM_P1;HPM_P2
2024/04/02 00:01:48;;;;;;;2.13;0.40;;;7.70;99.90;;;;;;5030428;28;20028;-76
2024/04/02 00:04:15;;;;;;;0.28;0.20;;;7.60;99.90;;;;;;5030607;28;20050;-75
2024/04/02 00:06:40;;;;;;;0.30;0.30;;;7.60;99.90;;;;;;5030672;28;20426;-76
2024/04/02 00:09:06;;;;;;;1.85;0.30;;;7.60;99.90;;;;;;5031087;28;20044;-76
2024/04/02 00:11:31;;;;;;;1.77;0.40;;;7.50;99.90;;;;;;5030676;28;20043;-76
2024/04/02 00:14:00;;;;;;;0.95;0.55;;;7.50;99.90;;;;;;5027266;28;20336;-75
2024/04/02 00:16:25;;;;;;;1.63;0.45;;;7.50;99.90;;;;;;5031121;28;20059;-76
2024/04/02 00:18:51;;;;;;;1.27;0.40;;;7.50;99.90;;;;;;5030356;28;20136;-76
2024/04/02 00:21:17;;;;;;;1.52;0.30;;;7.40;99.90;;;;;;5031051;28;20057;-76
2024/04/02 00:23:42;;;;;;;1.30;0.45;;;7.40;99.90;;;;;;5030638;28;20363;-76
2024/04/02 00:26:08;;;;;;;0.47;0.47;;;7.40;99.90;;;;;;5025577;28;20038;-76
2024/04/02 00:28:34;;;;;;;1.05;0.70;;;;;;;;;;5028937;28;20052;-76
2024/04/02 00:31:01;;;;;;;0.50;0.40;;;7.30;99.90;;;;;;5026155;28;20083;-76
2024/04/02 00:33:29;;;;;;;1.05;0.30;;;7.20;99.90;;;;;;5030248;28;20029;-76
2024/04/02 00:36:06;;;;;;;1.08;0.32;;;7.20;99.90;;;;;;5027274;28;20040;-76
2024/04/02 00:38:32;;;;;;;0.75;0.40;;;7.20;99.90;;;;;;5030163;28;20029;-76
2024/04/02 00:40:58;;;;;;;1.25;0.50;;;7.20;99.90;;;;;;5029619;28;20034;-76
2024/04/02 00:43:25;;;;;;;1.58;0.45;;;7.20;99.90;;;;;;5030082;28;20075;-77
2024/04/02 00:45:51;;;;;;;1.60;0.52;;;7.20;99.90;;;;;;5029167;28;20530;-76
2024/04/02 00:48:18;;;;;;;0.47;0.45;;;7.20;99.90;;;;;;5027761;28;20033;-77
2024/04/02 00:50:45;;;;;;;2.55;0.50;;;7.20;99.90;;;;;;5030433;28;20069;-76
2024/04/02 00:53:12;;;;;;;1.90;0.30;;;7.30;99.90;;;;;;5028822;28;20029;-76
2024/04/02 00:55:39;;;;;;;0.82;0.30;;;7.30;99.90;;;;;;5025193;28;20471;-76
2024/04/02 00:58:07;;;;;;;0.40;0.20;;;7.30;99.90;;;;;;5029434;28;20037;-75
2024/04/02 01:00:36;;;;;;;0.63;0.30;;;7.40;99.90;;;;;;5028906;28;20544;-76
2024/04/02 01:03:03;;;;;;;0.85;0.40;;;7.40;99.90;;;;;;5029574;28;20045;-76
2024/04/02 01:05:30;;;;;;;2.15;0.40;;;7.40;99.90;;;;;;5027242;28;20052;-76
2024/04/02 01:07:55;;;;;;;0.63;0.30;;;7.50;99.90;;;;;;5029086;28;20029;-76
2024/04/02 01:10:21;;;;;;;1.90;0.40;;;7.60;99.90;;;;;;5030366;28;20054;-76
2024/04/02 01:12:48;;;;;;;1.15;0.52;;;7.70;99.90;;;;;;5029403;28;20096;-76
2024/04/02 01:15:19;;;;;;;0.88;0.30;;;7.70;99.90;;;;;;5026311;28;20037;-76
2024/04/02 01:17:45;;;;;;;2.05;0.30;;;7.70;99.90;;;;;;5029840;28;20032;-76
2024/04/02 01:20:11;;;;;;;2.30;0.60;;;7.80;99.90;;;;;;5029419;28;20108;-76
2024/04/02 01:22:36;;;;;;;3.50;0.75;;;7.80;99.90;;;;;;5039964;28;20386;-76
2024/04/02 01:25:02;;;;;;;0.55;0.25;;;7.80;99.90;;;;;;5028844;28;20026;-76
2024/04/02 01:27:28;;;;;;;1.85;0.20;;;7.80;99.90;;;;;;5029345;28;20033;-76
2024/04/02 01:29:55;;;;;;;1.05;0.40;;;7.70;99.90;;;;;;5029116;28;20044;-75
2024/04/02 01:32:21;;;;;;;1.33;0.30;;;7.80;99.90;;;;;;5027083;28;20044;-75
2024/04/02 01:34:47;;;;;;;2.05;0.40;;;7.70;99.90;;;;;;5029787;28;20057;-75
2024/04/02 01:37:12;;;;;;;0.47;0.25;;;7.70;99.90;;;;;;5028344;28;20316;-75
2024/04/02 01:39:38;;;;;;;1.73;0.50;;;7.60;99.90;;;;;;5028883;28;20102;-75
2024/04/02 01:42:03;;;;;;;0.60;0.35;;;7.60;99.90;;;;;;5027773;28;20029;-75
2024/04/02 01:44:29;;;;;;;1.42;0.30;;;7.60;99.90;;;;;;5028365;28;20355;-75
2024/04/02 01:46:55;;;;;;;0.70;0.22;;;7.60;99.90;;;;;;5028011;28;20037;-75
2024/04/02 01:49:20;;;;;;;0.60;0.30;;;7.60;99.90;;;;;;5029723;28;20030;-75
2024/04/02 01:51:46;;;;;;;0.65;0.30;;;7.60;99.90;;;;;;5028594;28;20029;-75
2024/04/02 01:54:11;;;;;;;1.10;0.28;;;7.60;99.90;;;;;;5028731;28;20027;-74
2024/04/02 01:56:37;;;;;;;1.33;0.22;;;7.60;99.90;;;;;;5025503;28;20479;-75
2024/04/02 01:59:02;;;;;;;1.33;0.45;;;7.60;99.90;;;;;;5028518;28;20155;-75
2024/04/02 02:01:28;;;;;;;2.78;0.40;;;7.60;99.90;;;;;;5016196;28;20366;-75
2024/04/02 02:03:54;;;;;;;4.03;0.38;;;7.60;99.90;;;;;;5028706;28;20026;-75
2024/04/02 02:06:19;;;;;;;0.25;0.20;;;7.70;99.90;;;;;;5028224;28;20071;-75
2024/04/02 02:08:45;;;;;;;0.35;0.25;;;7.80;99.90;;;;;;5028864;28;20038;-75
2024/04/02 02:11:10;;;;;;;0.63;0.50;;;7.90;99.90;;;;;;5027445;28;20099;-75
2024/04/02 02:13:36;;;;;;;3.50;0.38;;;7.90;99.90;;;;;;5027211;28;20116;-75
2024/04/02 02:16:02;;;;;;;0.55;0.20;;;7.90;99.90;;;;;;5027468;28;20034;-74
2024/04/02 02:18:29;;;;;;;0.82;0.35;;;7.90;99.90;;;;;;5026982;28;20026;-77
2024/04/02 02:20:56;;;;;;;0.93;0.35;;;7.90;99.90;;;;;;5023865;28;20438;-76
2024/04/02 02:23:22;;;;;;;0.60;0.30;;;7.90;99.90;;;;;;5039737;28;20025;-75
2024/04/02 02:25:48;;;;;;;2.83;0.30;;;7.90;99.90;;;;;;5040682;28;20079;-77
2024/04/02 02:28:14;;;;;;;0.13;0.10;;;7.90;99.90;;;;;;5039898;28;20029;-75
2024/04/02 02:30:40;;;;;;;1.17;0.30;;;7.90;99.90;;;;;;5041256;28;20105;-76
2024/04/02 02:33:05;;;;;;;3.50;0.30;;;7.90;99.90;;;;;;5039124;28;20537;-73
2024/04/02 02:35:31;;;;;;;0.95;0.40;;;7.80;99.90;;;;;;5040049;28;20112;-76
2024/04/02 02:37:59;;;;;;;1.10;0.30;;;7.80;99.90;;;;;;5045472;28;20460;-76
2024/04/02 02:40:25;;;;;;;1.90;0.80;;;7.80;99.90;;;;;;5029441;28;20029;-76
2024/04/02 02:42:51;;;;;;;2.15;0.40;;;7.80;99.90;;;;;;5026972;28;20025;-76
2024/04/02 02:45:16;;;;;;;2.25;0.40;;;7.80;99.90;;;;;;5028657;28;20025;-76
2024/04/02 02:47:42;;;;;;;0.57;0.30;;;7.70;99.90;;;;;;5023378;28;20108;-76
2024/04/02 02:50:07;;;;;;;1.63;0.50;;;7.70;99.90;;;;;;5023045;28;20722;-76
2024/04/02 02:52:33;;;;;;;0.63;0.30;;;7.70;99.90;;;;;;5027772;28;20060;-77
2024/04/02 02:54:59;;;;;;;1.45;0.40;;;7.60;99.90;;;;;;5027073;28;20029;-76
2024/04/02 02:57:24;;;;;;;1.90;0.43;;;7.60;99.90;;;;;;5033487;28;20034;-76
2024/04/02 02:59:50;;;;;;;1.60;0.30;;;7.60;99.90;;;;;;5027337;28;20087;-76
2024/04/02 03:02:15;;;;;;;1.75;0.22;;;7.60;99.90;;;;;;5027614;28;20026;-76
2024/04/02 03:04:41;;;;;;;0.73;0.30;;;7.60;99.90;;;;;;5025037;28;20095;-76
2024/04/02 03:07:07;;;;;;;1.95;0.30;;;7.50;99.90;;;;;;5025744;28;20248;-76
2024/04/02 03:09:36;;;;;;;0.50;0.30;;;7.50;99.90;;;;;;5027315;28;20037;-76
2024/04/02 03:12:04;;;;;;;1.23;0.60;;;7.50;99.90;;;;;;5026525;28;20033;-77
2024/04/02 03:14:30;;;;;;;0.90;0.35;;;7.40;99.90;;;;;;5027934;28;20025;-76
2024/04/02 03:16:56;;;;;;;0.50;0.30;;;7.50;99.90;;;;;;5026606;28;20026;-76
2024/04/02 03:19:21;;;;;;;2.35;0.50;;;7.50;99.90;;;;;;5028177;28;20036;-76
2024/04/02 03:21:47;;;;;;;0.88;0.25;;;7.50;99.90;;;;;;5019022;28;20368;-77
2024/04/02 03:24:13;;;;;;;0.63;0.47;;;7.60;99.90;;;;;;5032533;28;20478;-76
2024/04/02 03:26:39;;;;;;;1.42;0.35;;;7.50;99.90;;;;;;5028106;28;20056;-77
2024/04/02 03:29:04;;;;;;;1.02;0.50;;;7.50;99.90;;;;;;5030274;28;20378;-77
2024/04/02 03:31:30;;;;;;;0.57;0.35;;;7.40;99.90;;;;;;5033741;28;20040;-76
2024/04/02 03:33:59;;;;;;;0.30;0.20;;;7.40;99.90;;;;;;5034598;28;20041;-76
2024/04/02 03:36:24;;;;;;;0.30;0.30;;;7.40;99.90;;;;;;5034431;28;20720;-76
2024/04/02 03:38:50;;;;;;;1.88;0.30;;;7.40;99.90;;;;;;5031283;28;20037;-77
2024/04/02 03:41:16;;;;;;;1.55;0.40;;;7.40;99.90;;;;;;5027417;28;20348;-77
2024/04/02 03:43:42;;;;;;;0.80;0.30;;;7.30;99.90;;;;;;5033154;28;20033;-75
2024/04/02 03:46:09;;;;;;;1.15;0.50;;;7.30;99.90;;;;;;5033070;28;20570;-76
2024/04/02 03:48:35;;;;;;;0.25;0.20;;;7.20;99.90;;;;;;5034429;28;20557;-75
2024/04/02 03:51:01;;;;;;;0.30;0.30;;;7.20;99.90;;;;;;5033823;28;20037;-73
2024/04/02 03:53:27;;;;;;;0.85;0.20;;;7.20;99.90;;;;;;5034493;28;20029;-73
2024/04/02 03:56:00;;;;;;;4.15;0.38;;;7.20;99.90;;;;;;5033430;28;20036;-75
2024/04/02 03:58:27;;;;;;;1.15;0.35;;;7.10;99.90;;;;;;5027317;28;20100;-77
2024/04/02 04:00:56;;;;;;;0.40;0.20;;;7.20;99.90;;;;;;5032397;28;20041;-76
2024/04/02 04:03:25;;;;;;;2.75;0.30;;;7.20;99.90;;;;;;5029911;28;20026;-76
2024/04/02 04:06:04;;;;;;;2.85;0.40;;;7.30;99.90;;;;;;5024399;28;20053;-75
2024/04/02 04:08:34;;;;;;;0.50;0.10;;;7.30;99.90;;;;;;5033964;28;20132;-75
2024/04/02 04:11:00;;;;;;;0.22;0.20;;;7.30;99.90;;;;;;5032222;28;20039;-76
2024/04/02 04:13:26;;;;;;;0.38;0.30;;;7.30;99.90;;;;;;5029383;28;20034;-75
2024/04/02 04:15:57;;;;;;;0.85;0.30;;;7.30;99.90;;;;;;5031924;28;20032;-75
2024/04/02 04:18:23;;;;;;;1.17;0.40;;;7.30;99.90;;;;;;5033407;28;20037;-76
2024/04/02 04:20:59;;;;;;;0.50;0.22;;;7.40;99.90;;;;;;5032979;28;20173;-75
2024/04/02 04:23:25;;;;;;;0.70;0.22;;;7.50;99.90;;;;;;5033928;28;20423;-75
2024/04/02 04:26:01;;;;;;;0.40;0.30;;;7.50;99.90;;;;;;5032905;28;20151;-75
2024/04/02 04:28:27;;;;;;;1.88;0.40;;;7.60;99.90;;;;;;5033611;28;20026;-75
2024/04/02 04:30:54;;;;;;;0.98;0.22;;;7.60;99.90;;;;;;5027757;28;20049;-74
2024/04/02 04:33:20;;;;;;;0.43;0.10;;;7.70;99.90;;;;;;5029969;28;20042;-75
2024/04/02 04:35:47;;;;;;;1.80;0.30;;;7.70;99.90;;;;;;5032605;28;20034;-76
2024/04/02 04:38:13;;;;;;;0.75;0.38;;;7.70;99.90;;;;;;5032379;28;20145;-76
2024/04/02 04:40:40;;;;;;;1.85;0.35;;;7.80;99.90;;;;;;5032935;28;20030;-76
2024/04/02 04:43:06;;;;;;;1.38;0.28;;;7.70;99.90;;;;;;5032769;28;20096;-75
2024/04/02 04:45:31;;;;;;;1.95;0.40;;;7.70;99.90;;;;;;5033175;28;20104;-77
2024/04/02 04:47:57;;;;;;;2.13;0.20;;;7.70;99.90;;;;;;5032610;28;20382;-75
2024/04/02 04:50:23;;;;;;;0.22;0.20;;;7.70;99.90;;;;;;5034124;28;20099;-75
2024/04/02 04:52:51;;;;;;;3.35;0.65;;;7.70;99.90;;;;;;5023419;28;20021;-75
2024/04/02 04:55:16;;;;;;;0.30;0.20;;;7.70;99.90;;;;;;5033039;28;20036;-75
2024/04/02 04:57:42;;;;;;;1.85;0.32;;;7.70;99.90;;;;;;5032912;28;20033;-74
2024/04/02 05:00:08;;;;;;;0.43;0.35;;;7.70;99.90;;;;;;5031283;28;20095;-74
2024/04/02 05:02:33;;;;;;;0.65;0.28;;;7.70;99.90;;;;;;5032442;28;20048;-77
2024/04/02 05:04:59;;;;;;;1.05;0.35;;;7.70;99.90;;;;;;5032361;28;20096;-77
2024/04/02 05:07:25;;;;;;;0.63;0.30;;;7.60;99.90;;;;;;5023641;28;20048;-76
2024/04/02 05:09:51;;;;;;;0.77;0.40;;;7.60;99.90;;;;;;5023920;28;20112;-76
2024/04/02 05:12:17;;;;;;;0.32;0.10;;;7.60;99.90;;;;;;5027044;28;20029;-77
2024/04/02 05:14:43;;;;;;;2.28;0.50;;;7.70;99.90;;;;;;5032761;28;20030;-78
2024/04/02 05:17:09;;;;;;;0.82;0.30;;;7.80;99.90;;;;;;5031275;28;20045;-76
2024/04/02 05:19:34;;;;;;;0.98;0.40;;;7.80;99.90;;;;;;5030421;28;20456;-76
2024/04/02 05:22:00;;;;;;;0.77;0.20;;;7.90;99.90;;;;;;5018933;28;20083;-76
2024/04/02 05:24:26;;;;;;;0.25;0.20;;;7.90;99.90;;;;;;5032359;28;20463;-77
2024/04/02 05:26:51;;;;;;;1.13;0.22;;;8.00;99.90;;;;;;5028955;28;20025;-76
2024/04/02 05:29:17;;;;;;;0.77;0.30;;;8.00;99.90;;;;;;5028517;28;20034;-74
2024/04/02 05:31:43;;;;;;;2.60;0.28;;;8.00;99.90;;;;;;5012094;28;20146;-74
2024/04/02 05:34:09;;;;;;;0.95;0.47;;;8.00;99.90;;;;;;5028562;28;20659;-73
2024/04/02 05:36:34;;;;;;;2.42;0.30;;;8.00;99.90;;;;;;5019755;28;20117;-74
2024/04/02 05:39:00;;;;;;;1.02;0.50;;;8.10;99.90;;;;;;5028361;28;20045;-74
2024/04/02 05:41:25;;;;;;;0.43;0.30;;;8.20;99.90;;;;;;5030507;28;20041;-77
2024/04/02 05:43:51;;;;;;;1.58;0.20;;;8.20;99.90;;;;;;5022109;28;20030;-76
2024/04/02 05:46:17;;;;;;;1.20;0.30;;;8.20;99.90;;;;;;5026236;28;20037;-75
2024/04/02 05:48:46;;;;;;;0.47;0.20;;;8.30;99.90;;;;;;5026844;28;20056;-75
2024/04/02 05:51:11;;;;;;;1.42;0.40;;;8.40;99.90;;;;;;5030236;28;20494;-76
2024/04/02 05:53:37;;;;;;;0.98;0.45;;;8.50;99.90;;;;;;5030732;28;20100;-73
2024/04/02 05:56:04;;;;;;;1.33;0.30;;;8.50;99.90;;;;;;5028319;28;20025;-74
2024/04/02 05:58:30;;;;;;;2.47;0.47;;;8.50;99.90;;;;;;5024307;28;20052;-71
2024/04/02 06:01:06;;;;;;;2.95;0.52;;;8.40;99.90;;;;;;5020549;28;20025;-76
2024/04/02 06:03:32;;;;;;;2.15;0.77;;;8.40;99.90;;;;;;5028603;28;20021;-73
2024/04/02 06:05:58;;;;;;;1.33;0.30;;;8.30;99.90;;;;;;5028750;28;20388;-73
2024/04/02 06:08:25;;;;;;;1.48;0.77;;;8.40;99.90;;;;;;5029802;28;20465;-73
2024/04/02 06:10:50;;;;;;;2.40;0.60;;;8.40;99.90;;;;;;5029771;28;20113;-75
2024/04/02 06:13:16;;;;;;;0.80;0.30;;;8.40;99.90;;;;;;5025514;28;20045;-73
2024/04/02 06:15:42;;;;;;;1.02;0.28;;;8.50;99.90;;;;;;5029473;28;20034;-74
2024/04/02 06:18:08;;;;;;;1.60;0.40;;;8.50;99.90;;;;;;5029688;28;20025;-75
2024/04/02 06:20:34;;;;;;;2.40;0.32;;;8.50;99.90;;;;;;5013073;28;20029;-75
2024/04/02 06:23:00;;;;;;;1.70;0.40;;;8.60;99.90;;;;;;5018415;28;20045;-76
2024/04/02 06:25:25;;;;;;;0.40;0.20;;;8.70;99.90;;;;;;5025844;28;20033;-73
2024/04/02 06:27:51;;;;;;;1.88;0.30;;;8.90;99.90;;;;;;5028347;28;20060;-74
2024/04/02 06:30:17;;;;;;;0.90;0.20;;;9.10;99.90;;;;;;5027212;28;20041;-73
2024/04/02 06:32:42;;;;;;;0.80;0.17;;;9.20;99.90;;;;;;5025366;28;20040;-73
2024/04/02 06:35:08;;;;;;;0.77;0.40;;;9.30;99.90;;;;;;5022871;28;20304;-74
2024/04/02 06:37:33;;;;;;;0.30;0.30;;;9.20;99.90;;;;;;5026900;28;20037;-73
2024/04/02 06:40:00;;;;;;;0.82;0.40;;;9.20;99.90;;;;;;5029631;28;20068;-73
2024/04/02 06:42:26;;;;;;;0.28;0.20;;;9.20;99.90;;;;;;5024872;28;20517;-73
2024/04/02 06:44:54;;;;;;;0.25;0.20;;;9.30;99.90;;;;;;5014135;28;20029;-73
2024/04/02 06:47:19;;;;;;;2.60;0.50;;;9.10;99.90;;;;;;5030261;28;20029;-73
2024/04/02 06:49:45;;;;;;;0.17;0.15;;;9.10;99.90;;;;;;5027133;28;20036;-73
2024/04/02 06:52:10;;;;;;;1.42;0.35;;;9.10;99.90;;;;;;5030183;28;20575;-72
2024/04/02 06:54:37;;;;;;;0.77;0.30;;;9.10;99.90;;;;;;5019583;28;20370;-73
2024/04/02 06:57:02;;;;;;;0.73;0.20;;;9.10;99.90;;;;;;5029047;28;20044;-73
2024/04/02 06:59:29;;;;;;;0.85;0.20;;;9.10;99.90;;;;;;5029876;28;20069;-73
2024/04/02 07:01:55;;;;;;;1.13;0.30;;;9.10;99.90;;;;;;5028739;28;20083;-73
2024/04/02 07:04:20;;;;;;;0.10;0.10;;;9.10;99.90;;;;;;5029179;28;20049;-72
2024/04/02 07:06:46;;;;;;;0.55;0.30;;;9.20;99.90;;;;;;5029002;28;20485;-73
2024/04/02 07:09:11;;;;;;;0.90;0.30;;;9.20;99.90;;;;;;5030486;28;20509;-73
2024/04/02 07:11:37;;;;;;;0.20;0.10;;;9.30;99.90;;;;;;5030624;28;20040;-72
2024/04/02 07:14:02;;;;;;;1.35;0.20;;;9.30;99.90;;;;;;5029803;28;20026;-73
2024/04/02 07:16:28;;;;;;;0.40;0.40;;;9.30;99.90;;;;;;5030208;28;20470;-73
2024/04/02 07:18:54;;;;;;;4.72;0.50;;;9.30;99.90;;;;;;5014219;28;20044;-73
2024/04/02 07:21:19;;;;;;;0.38;0.30;;;9.30;99.90;;;;;;5030431;28;20076;-72
2024/04/02 07:23:45;;;;;;;0.95;0.40;;;9.40;99.90;;;;;;5018835;28;20091;-73
2024/04/02 07:26:10;;;;;;;0.50;0.38;;;9.50;99.90;;;;;;5030584;28;20048;-74
2024/04/02 07:28:36;;;;;;;2.50;0.40;;;9.50;99.90;;;;;;5031157;28;20025;-74
2024/04/02 07:31:02;;;;;;;2.97;0.65;;;9.60;99.90;;;;;;5020705;28;20116;-75
2024/04/02 07:33:27;;;;;;;1.20;0.52;;;9.70;99.90;;;;;;5021836;28;20077;-75
2024/04/02 07:35:56;;;;;;;6.43;0.95;;;9.80;99.90;;;;;;5026577;28;20034;-73
2024/04/02 07:38:22;;;;;;;1.27;0.60;;;9.90;99.90;;;;;;5031066;28;20030;-75
2024/04/02 07:40:48;;;;;;;1.52;0.40;;;10.00;99.90;;;;;;5030234;28;20032;-77
2024/04/02 07:43:14;;;;;;;1.50;0.40;;;10.10;99.90;;;;;;5012823;28;20479;-75
2024/04/02 07:45:40;;;;;;;1.88;0.50;;;10.10;99.90;;;;;;5026700;28;20101;-74
2024/04/02 07:48:06;;;;;;;2.85;0.60;;;10.10;99.90;;;;;;5028802;28;20033;-74
2024/04/02 07:50:33;;;;;;;2.47;0.50;;;10.10;99.90;;;;;;5030097;28;20037;-74
2024/04/02 07:52:59;;;;;;;2.50;0.50;;;10.10;99.90;;;;;;5024977;28;20042;-74
2024/04/02 07:55:25;;;;;;;2.80;0.75;;;10.10;99.90;;;;;;5025736;28;20025;-73
2024/04/02 07:57:51;;;;;;;3.53;0.55;;;10.10;99.90;;;;;;5029707;28;20100;-73
2024/04/02 08:00:17;;;;;;;2.30;0.70;;;10.10;99.90;;;;;;5030207;28;20033;-73
2024/04/02 08:02:43;;;;;;;5.75;1.05;;;10.30;99.90;;;;;;5022209;28;20033;-71
2024/04/02 08:05:09;;;;;;;4.57;0.82;;;10.50;99.90;;;;;;5026325;28;20174;-75
2024/04/02 08:07:35;;;;;;;2.83;0.50;;;10.70;99.90;;;;;;5019787;28;20034;-74
2024/04/02 08:10:00;;;;;;;2.08;0.60;;;11.00;99.90;;;;;;5023960;28;20056;-74
2024/04/02 08:12:26;;;;;;;1.10;0.35;;;11.20;99.90;;;;;;5030247;28;20085;-73
2024/04/02 08:14:52;;;;;;;4.90;0.70;;;11.40;99.90;;;;;;5030941;28;20075;-73
2024/04/02 08:17:17;;;;;;;2.05;0.63;;;11.70;99.90;;;;;;5034076;28;20025;-75
2024/04/02 08:19:43;;;;;;;3.40;0.60;;;11.90;99.90;;;;;;5034449;28;20044;-76
2024/04/02 08:22:09;;;;;;;2.40;0.50;;;12.10;99.90;;;;;;5030119;28;20030;-72
2024/04/02 08:24:35;;;;;;;1.33;0.30;;;12.20;99.90;;;;;;5023732;28;20034;-74
2024/04/02 08:27:02;;;;;;;9.25;0.63;;;12.30;99.90;;;;;;5031116;28;20029;-73
2024/04/02 08:29:28;;;;;;;2.60;0.60;;;12.40;99.90;;;;;;5025748;28;20132;-74
2024/04/02 08:31:53;;;;;;;3.22;0.70;;;12.40;99.90;;;;;;5030103;28;20284;-72
2024/04/02 08:34:19;;;;;;;4.18;0.80;;;12.40;99.90;;;;;;5033081;28;20076;-73
2024/04/02 08:36:45;;;;;;;5.00;0.90;;;12.40;99.90;;;;;;5033097;28;20033;-73
2024/04/02 08:39:12;;;;;;;3.13;0.63;;;12.40;99.90;;;;;;5032746;28;20037;-73
2024/04/02 08:41:40;;;;;;;3.80;0.63;;;12.40;99.90;;;;;;5032958;28;20520;-72
2024/04/02 08:44:06;;;;;;;4.45;0.95;;;12.40;99.90;;;;;;5027566;28;20034;-73
2024/04/02 08:46:33;;;;;;;3.05;0.70;;;12.50;99.90;;;;;;5028833;28;20076;-73
2024/04/02 08:48:59;;;;;;;6.07;0.63;;;12.30;99.90;;;;;;5023725;28;20036;-72
2024/04/02 08:51:28;;;;;;;4.53;0.90;;;12.10;99.90;;;;;;5028795;28;20534;-73
2024/04/02 08:53:54;;;;;;;7.35;0.90;;;12.00;99.90;;;;;;5031122;28;20280;-73
2024/04/02 08:56:19;;;;;;;3.08;0.60;;;11.80;99.90;;;;;;5032601;28;20036;-72
2024/04/02 08:58:50;;;;;;;5.13;0.80;;;11.70;99.90;;;;;;5033362;28;20390;-72
2024/04/02 09:01:16;;;;;;;3.35;0.70;;;11.70;99.90;;;;;;5026952;28;20037;-73
2024/04/02 09:03:41;;;;;;;2.20;0.50;;;11.70;99.90;;;;;;5033094;28;20072;-72
2024/04/02 09:06:07;;;;;;;3.83;0.80;;;11.80;99.90;;;;;;5031208;28;20259;-72
2024/04/02 09:08:48;;;;;;;3.92;0.70;;;11.90;99.90;;;;;;5032670;28;20029;-72
2024/04/02 09:11:15;;;;;;;6.45;0.98;;;11.80;99.90;;;;;;5032613;28;20037;-73
2024/04/02 09:13:40;;;;;;;3.40;0.85;;;11.80;99.90;;;;;;5032691;28;20018;-73
2024/04/02 09:16:07;;;;;;;3.88;0.47;;;11.90;99.90;;;;;;5030953;28;20048;-73
2024/04/02 09:18:36;;;;;;;3.58;0.60;;;12.10;99.90;;;;;;5024080;28;20113;-72
2024/04/02 09:21:02;;;;;;;2.63;0.55;;;12.40;99.90;;;;;;5027948;28;20484;-73
2024/04/02 09:23:29;;;;;;;5.63;0.60;;;12.60;99.90;;;;;;5032378;28;20029;-72
2024/04/02 09:25:56;;;;;;;4.40;0.70;;;12.80;99.90;;;;;;5031704;28;20037;-72
2024/04/02 09:28:21;;;;;;;5.45;0.88;;;12.90;99.90;;;;;;5023479;28;20026;-73
2024/04/02 09:30:48;;;;;;;4.38;0.60;;;13.20;99.90;;;;;;5026565;28;20056;-75
2024/04/02 09:33:17;;;;;;;2.50;0.70;;;13.40;99.90;;;;;;5028497;28;20040;-73
2024/04/02 09:36:00;;;;;;;4.30;0.90;;;13.50;99.90;;;;;;5024664;28;20026;-73
2024/04/02 09:38:27;;;;;;;3.00;0.80;;;13.50;99.90;;;;;;5031797;28;20025;-73
2024/04/02 09:40:54;;;;;;;5.03;0.82;;;13.60;99.90;;;;;;5031878;28;20029;-74
2024/04/02 09:43:20;;;;;;;3.28;0.75;;;13.60;99.90;;;;;;5032003;28;20374;-73
2024/04/02 09:45:48;;;;;;;3.35;1.05;;;13.50;99.90;;;;;;5033364;28;20053;-73
2024/04/02 09:48:15;;;;;;;2.38;0.77;;;13.70;99.90;;;;;;5033848;28;20463;-73
2024/04/02 09:50:43;;;;;;;3.53;0.68;;;13.70;99.90;;;;;;5032928;28;20025;-73
2024/04/02 09:53:12;;;;;;;3.65;1.00;;;13.90;99.90;;;;;;5019405;28;20034;-74
2024/04/02 09:55:40;;;;;;;4.28;0.90;;;13.80;99.90;;;;;;5033056;28;20026;-73
2024/04/02 09:58:08;;;;;;;5.53;1.00;;;13.80;99.90;;;;;;5017622;28;20124;-75
2024/04/02 10:00:35;;;;;;;5.50;0.98;;;13.90;99.90;;;;;;5033187;28;20079;-74
2024/04/02 10:03:03;;;;;;;3.58;0.88;;;14.00;99.40;;;;;;5022916;28;20032;-74
2024/04/02 10:05:29;;;;;;;3.50;0.80;;;14.10;99.50;;;;;;5031573;28;20395;-74
2024/04/02 10:07:56;;;;;;;2.90;0.60;;;14.40;99.00;;;;;;5017934;28;20129;-73
2024/04/02 10:10:29;;;;;;;6.22;1.00;;;14.60;98.90;;;;;;5028674;28;20030;-79
2024/04/02 10:12:56;;;;;;;5.50;1.00;;;14.80;98.30;;;;;;5030873;28;20026;-79
2024/04/02 10:15:22;;;;;;;5.57;0.68;;;15.00;98.20;;;;;;5032221;28;20037;-79
2024/04/02 10:17:59;;;;;;;3.05;0.80;;;15.30;97.10;;;;;;5031423;28;20524;-73
2024/04/02 10:20:27;;;;;;;1.58;0.40;;;15.40;96.60;;;;;;5031873;28;20025;-78
2024/04/02 10:22:54;;;;;;;2.50;0.80;;;15.70;95.80;;;;;;5030863;28;20304;-77
2024/04/02 10:25:20;;;;;;;3.05;0.68;;;15.70;95.20;;;;;;5031764;28;20033;-76
2024/04/02 10:27:49;;;;;;;4.13;1.00;;;15.70;94.80;;;;;;5013200;28;20026;-77
2024/04/02 10:30:16;;;;;;;2.40;1.25;;;15.70;94.50;;;;;;5025053;28;20025;-77
2024/04/02 10:32:46;;;;;;;3.47;0.90;;;15.70;94.00;;;;;;5025207;28;20077;-77
2024/04/02 10:35:22;;;;;;;3.70;0.95;;;15.60;94.30;;;;;;5024310;28;20036;-77
2024/04/02 10:37:55;;;;;;;5.03;1.08;;;15.50;94.30;;;;;;5030177;28;20091;-71
2024/04/02 10:40:21;;;;;;;3.42;1.02;;;15.60;94.30;;;;;;5031564;28;20029;-75
2024/04/02 10:42:48;;;;;;;2.53;0.82;;;15.40;93.80;;;;;;5028021;28;20033;-76
2024/04/02 10:45:15;;;;;;;3.97;0.85;;;15.20;94.10;;;;;;5026166;28;20029;-76
2024/04/02 10:47:51;;;;;;;3.00;1.00;;;15.00;94.30;;;;;;5030868;28;20029;-75
2024/04/02 10:50:19;;;;;;;2.53;0.60;;;14.80;94.20;;;;;;5023703;28;20033;-77
2024/04/02 10:52:45;;;;;;;4.18;0.90;;;14.60;94.60;;;;;;5031267;28;20029;-76
2024/04/02 10:55:11;;;;;;;2.15;0.85;;;14.60;95.40;;;;;;5030563;28;20525;-75
2024/04/02 10:57:38;;;;;;;1.75;0.50;;;14.80;95.90;;;;;;5031244;28;20028;-75
2024/04/02 11:00:14;;;;;;;1.30;0.43;;;14.60;95.70;;;;;;5028488;28;20046;-76
2024/04/02 11:02:42;;;;;;;3.17;0.90;;;14.40;96.00;;;;;;5019238;28;20092;-78
2024/04/02 11:05:16;;;;;;;3.47;0.70;;;14.30;96.10;;;;;;5028680;28;20238;-86
2024/04/02 11:07:43;;;;;;;2.30;0.52;;;14.30;96.10;;;;;;5015763;28;20037;-76
2024/04/02 11:10:09;;;;;;;3.45;0.60;;;14.50;96.10;;;;;;5009711;28;20121;-74
2024/04/02 11:12:34;;;;;;;3.67;0.80;;;14.90;96.20;;;;;;5023790;28;20072;-76
2024/04/02 11:15:00;;;;;;;0.98;0.50;;;15.10;96.20;;;;;;5017236;28;20391;-73
2024/04/02 11:17:26;;;;;;;3.75;0.63;;;15.30;96.50;;;;;;5015100;28;20105;-76
2024/04/02 11:19:52;;;;;;;3.60;0.90;;;15.60;95.70;;;;;;5030351;28;20111;-72
2024/04/02 11:25:15;;;;;;;2.00;0.52;;;15.70;96.10;;;;;;5029860;28;20033;-73
2024/04/02 11:27:41;;;;;;;4.78;0.85;;;15.20;97.90;;;;;;5029895;28;20033;-72
2024/04/02 11:30:13;;;;;;;3.33;0.68;;;14.50;98.00;;;;;;5030035;28;20025;-73
2024/04/02 11:32:39;;;;;;;2.03;0.60;;;13.90;98.00;;;;;;5025282;28;20065;-73
2024/04/02 11:35:15;;;;;;;2.08;0.57;;;13.50;98.70;;;;;;5023475;28;20068;-73
2024/04/02 11:37:42;;;;;;;7.05;1.35;;;13.40;99.10;;;;;;5011023;28;20033;-73
2024/04/02 11:40:11;;;;;;;2.63;0.70;;;13.70;99.00;;;;;;5022403;28;20096;-73
2024/04/02 11:42:37;;;;;;;2.85;0.95;;;14.10;98.50;;;;;;5022506;28;20060;-74
2024/04/02 11:45:06;;;;;;;6.07;0.70;;;14.40;98.50;;;;;;5030091;28;20056;-73
2024/04/02 11:47:31;;;;;;;2.53;0.95;;;14.80;97.70;;;;;;5030099;28;20109;-75
2024/04/02 11:49:57;;;;;;;2.17;0.90;;;15.20;96.20;;;;;;5028921;28;20136;-74
2024/04/02 11:52:23;;;;;;;5.32;0.98;;;15.60;95.50;;;;;;5024052;28;20039;-72
2024/04/02 11:54:48;;;;;;;4.10;0.95;;;15.80;95.00;;;;;;5033200;28;20037;-70
2024/04/02 12:00:40;;;;;;;0.90;0.50;;;16.40;94.70;;;;;;5033000;28;20505;-72
2024/04/02 12:02:48;;;;;;;2.53;0.63;;;16.30;94.60;;;;;;5026261;28;20037;-74
2024/04/02 12:05:16;;;;;;;4.43;0.70;;;16.00;95.00;;;;;;5031027;28;20414;-75
2024/04/02 12:07:42;;;;;;;2.00;0.70;;;15.90;94.10;;;;;;5028677;28;20030;-73
2024/04/02 12:10:10;;;;;;;3.15;0.73;;;16.10;94.40;;;;;;5032388;28;20392;-73
2024/04/02 12:12:36;;;;;;;1.83;0.73;;;16.40;94.20;;;;;;5033281;28;20026;-73
2024/04/02 12:15:07;;;;;;;1.58;0.50;;;16.90;94.30;;;;;;5032781;28;20383;-74
2024/04/02 12:17:33;;;;;;;7.40;0.77;;;17.40;93.40;;;;;;5033559;28;20033;-74
2024/04/02 12:19:59;;;;;;;1.98;0.50;;;17.60;92.70;;;;;;5033259;28;20034;-73
2024/04/02 12:22:28;;;;;;;4.57;0.68;;;17.70;92.20;;;;;;5033900;28;20112;-74
2024/04/02 12:24:54;;;;;;;1.53;0.40;;;17.80;91.70;;;;;;5029354;28;20092;-73
2024/04/02 12:27:21;;;;;;;2.90;0.60;;;17.60;91.60;;;;;;5027013;28;20025;-74
2024/04/02 12:29:56;;;;;;;2.33;0.50;;;17.70;91.20;;;;;;5021374;28;20045;-74
2024/04/02 12:32:27;;;;;;;0.80;0.40;;;18.00;90.80;;;;;;5033293;28;20176;-75
2024/04/02 12:34:53;;;;;;;2.03;0.60;;;18.30;90.00;;;;;;5031308;28;20037;-75
2024/04/02 12:37:19;;;;;;;3.42;0.60;;;18.30;90.00;;;;;;5031014;28;20041;-75
2024/04/02 12:39:46;;;;;;;4.28;0.70;;;18.40;89.80;;;;;;5029653;28;20112;-74
2024/04/02 12:42:13;;;;;;;3.83;0.80;;;18.20;89.50;;;;;;5022255;28;20022;-74
2024/04/02 12:44:40;;;;;;;1.38;0.52;;;17.40;90.40;;;;;;5033782;28;20037;-73
2024/04/02 12:47:09;;;;;;;1.65;0.60;;;16.70;92.30;;;;;;5032347;28;20041;-74
2024/04/02 12:49:38;;;;;;;3.15;0.73;;;16.00;94.50;;;;;;5033205;28;20029;-74
2024/04/02 12:52:04;;;;;;;2.70;0.43;;;15.40;97.30;;;;;;5032205;28;20112;-74
2024/04/02 12:54:30;;;;;;;2.13;0.70;;;15.30;97.00;;;;;;5033018;28;20108;-75
2024/04/02 12:56:55;;;;;;;1.27;0.38;;;15.60;96.80;;;;;;5032337;28;20109;-73